Time;durP1;ratioP1;P1;durP2;ratioP2;P2;SDS_P1;SDS_P2;PMS_P1;PMS_P2;Temp;Humidity;BMP_temperature;BMP_pressure;BME280_temperature;BME280_humidity;BME280_pressure;Samples;Min_cycle;Max_cycle;Signal;HPM_P1;HPM_P2
2022/10/07 00:03:08;;;;;;;5.83;3.53;;;;;;;17.75;60.94;99923.47;6947904;28;20213;-79
2022/10/07 00:06:31;;;;;;;7.00;3.20;;;;;;;17.87;60.48;99917.03;6947770;28;20344;-79
2022/10/07 00:09:53;;;;;;;5.77;3.73;;;;;;;17.92;60.10;99916.38;6946106;28;20270;-79
2022/10/07 00:13:14;;;;;;;8.50;3.40;;;;;;;17.79;60.43;99889.19;6947555;28;20725;-80
2022/10/07 00:16:38;;;;;;;5.33;3.60;;;;;;;17.93;60.26;99920.75;6946036;28;20229;-79
2022/10/07 00:19:59;;;;;;;3.50;3.20;;;;;;;17.58;60.46;99887.72;6944627;28;20239;-79
2022/10/07 00:23:22;;;;;;;9.17;4.23;;;;;;;17.72;60.47;99910.25;6947960;28;20262;-80
2022/10/07 00:26:44;;;;;;;6.73;3.37;;;;;;;17.47;61.08;99904.84;6947387;28;20685;-79
2022/10/07 00:30:06;;;;;;;10.73;3.90;;;;;;;17.54;61.38;99900.16;6946746;28;20229;-79
2022/10/07 00:33:30;;;;;;;4.07;3.10;;;;;;;17.64;60.59;99865.00;6947120;28;20247;-80
2022/10/07 00:36:52;;;;;;;7.10;3.37;;;;;;;17.73;60.89;99884.63;6947175;28;20233;-79
2022/10/07 00:40:15;;;;;;;3.80;2.93;;;;;;;17.84;60.19;99892.94;6946647;28;20274;-79
2022/10/07 00:43:36;;;;;;;8.17;3.30;;;;;;;17.72;60.50;99882.97;6945979;28;20298;-79
2022/10/07 00:46:58;;;;;;;7.83;3.27;;;;;;;17.78;59.83;99893.00;6945287;28;20293;-79
2022/10/07 00:50:24;;;;;;;7.03;3.63;;;;;;;17.50;61.17;99881.72;6945023;28;20347;-79
2022/10/07 00:53:48;;;;;;;4.07;2.93;;;;;;;17.70;60.88;99879.66;6944826;28;20262;-80
2022/10/07 00:57:12;;;;;;;7.47;3.33;;;;;;;17.27;61.28;99844.13;6944379;28;20277;-79
2022/10/07 01:00:33;;;;;;;5.43;3.30;;;;;;;17.60;61.35;99871.13;6944218;28;20260;-79
2022/10/07 01:03:55;;;;;;;6.73;3.10;;;;;;;17.52;61.50;99833.25;6946540;28;20685;-79
2022/10/07 01:07:17;;;;;;;7.00;3.30;;;;;;;17.89;60.87;99859.50;6946744;28;20204;-80
2022/10/07 01:10:43;;;;;;;5.83;3.00;;;;;;;17.88;60.69;99863.31;6945684;28;20321;-79
2022/10/07 01:14:10;;;;;;;6.83;3.37;;;;;;;17.41;61.20;99825.81;6947304;28;20194;-79
2022/10/07 01:17:38;;;;;;;5.43;3.50;;;;;;;17.18;62.03;99806.47;6946643;28;20310;-80
2022/10/07 01:21:04;;;;;;;7.50;3.30;;;;;;;17.41;62.24;99829.38;6949902;28;20237;-79
2022/10/07 01:24:32;;;;;;;9.33;3.33;;;;;;;17.18;62.80;99840.03;6952028;28;20668;-79
2022/10/07 01:27:57;;;;;;;4.67;2.73;;;;;;;17.36;62.71;99831.06;6951562;28;20299;-80
2022/10/07 01:31:22;;;;;;;7.40;3.57;;;;;;;17.73;62.03;99836.38;6951838;28;20219;-79
2022/10/07 01:34:44;;;;;;;5.70;3.20;;;;;;;17.63;61.82;99848.88;6951669;28;20768;-79
2022/10/07 01:38:08;;;;;;;4.77;3.27;;;;;;;17.45;62.10;99818.84;6951016;28;20386;-79
2022/10/07 01:41:31;;;;;;;6.30;3.30;;;;;;;17.74;61.84;99821.69;6933244;28;20569;-80
2022/10/07 01:44:57;;;;;;;4.40;3.40;;;;;;;17.82;61.40;99831.47;6924620;28;20213;-80
2022/10/07 01:48:18;;;;;;;9.80;2.90;;;;;;;17.66;61.85;99824.72;6925030;28;20582;-80
2022/10/07 01:51:41;;;;;;;4.00;2.97;;;;;;;17.97;60.95;99824.56;6924842;28;20425;-80
2022/10/07 01:55:23;;;;;;;5.33;3.40;;;;;;;17.70;61.72;99804.09;6924292;28;20299;-80
2022/10/07 01:58:58;;;;;;;7.33;3.33;;;;;;;17.92;60.86;99797.13;6923845;28;20274;-80
2022/10/07 02:02:29;;;;;;;4.83;3.17;;;;;;;18.26;59.93;99810.13;6924152;28;20215;-80
2022/10/07 02:05:53;;;;;;;10.60;3.23;;;;;;;18.23;59.76;99812.50;6924427;28;20281;-79
2022/10/07 02:09:22;;;;;;;6.40;2.83;;;;;;;17.86;60.56;99810.88;6923849;28;20310;-80
2022/10/07 02:12:48;;;;;;;4.33;3.10;;;;;;;17.71;61.17;99811.25;6924655;28;20411;-79
2022/10/07 02:16:16;;;;;;;9.27;3.97;;;;;;;17.59;61.74;99782.19;6924419;28;20212;-80
2022/10/07 02:19:42;;;;;;;6.10;2.73;;;;;;;17.86;61.05;99791.75;6920891;28;20224;-79
2022/10/07 02:23:05;;;;;;;6.77;2.90;;;;;;;17.84;61.16;99786.53;6923600;28;20192;-80
2022/10/07 02:26:29;;;;;;;7.97;2.97;;;;;;;18.01;60.53;99792.19;6922873;28;20298;-79
2022/10/07 02:29:53;;;;;;;10.03;2.87;;;;;;;17.94;60.30;99778.66;6922189;28;20234;-79
2022/10/07 02:33:15;;;;;;;7.63;3.47;;;;;;;18.04;60.58;99784.38;6922257;28;20349;-80
2022/10/07 02:36:43;;;;;;;5.90;3.10;;;;;;;18.03;60.52;99785.44;6922913;28;20376;-80
2022/10/07 02:40:06;;;;;;;5.73;3.73;;;;;;;17.68;60.74;99761.75;6922269;28;20595;-80
2022/10/07 02:43:29;;;;;;;5.73;3.10;;;;;;;17.37;62.34;99748.19;6923236;28;20206;-79
2022/10/07 02:46:53;;;;;;;3.37;2.90;;;;;;;17.71;62.04;99780.38;6923325;28;20242;-80
2022/10/07 02:50:19;;;;;;;7.77;3.40;;;;;;;17.73;61.82;99740.91;6921884;28;20307;-79
2022/10/07 02:53:43;;;;;;;4.77;3.10;;;;;;;18.06;61.44;99773.25;6923044;28;20566;-80
2022/10/07 02:57:05;;;;;;;4.67;3.07;;;;;;;17.89;61.51;99766.75;6922089;28;20230;-79
2022/10/07 03:00:28;;;;;;;5.87;3.47;;;;;;;17.81;61.45;99761.59;6921971;28;20251;-80
2022/10/07 03:03:49;;;;;;;6.30;2.97;;;;;;;17.92;61.13;99728.09;6923293;28;20266;-79
2022/10/07 03:07:12;;;;;;;4.63;3.00;;;;;;;18.17;60.77;99748.72;6923322;28;20277;-80
2022/10/07 03:10:35;;;;;;;6.53;3.57;;;;;;;18.14;60.27;99746.47;6927213;28;20593;-80
2022/10/07 03:13:57;;;;;;;5.47;2.90;;;;;;;18.17;60.48;99747.91;6924560;28;20208;-79
2022/10/07 03:17:18;;;;;;;8.13;3.17;;;;;;;18.09;60.81;99746.31;6921151;28;20227;-80
2022/10/07 03:20:40;;;;;;;7.43;3.40;;;;;;;17.82;61.26;99746.88;6918125;28;20234;-80
2022/10/07 03:24:03;;;;;;;7.60;3.40;;;;;;;17.89;61.76;99753.09;6921093;28;20250;-80
2022/10/07 03:27:27;;;;;;;6.30;3.47;;;;;;;18.36;60.57;99738.63;6920761;28;20683;-80
2022/10/07 03:30:49;;;;;;;9.37;3.57;;;;;;;18.36;60.05;99741.34;6920283;28;20218;-80
2022/10/07 03:34:10;;;;;;;5.90;3.50;;;;;;;18.02;59.91;99690.16;6920077;28;20780;-80
2022/10/07 03:37:32;;;;;;;3.73;3.23;;;;;;;18.06;60.86;99732.31;6919523;28;20292;-80
2022/10/07 03:40:53;;;;;;;8.07;3.27;;;;;;;18.00;60.61;99714.97;6922012;28;20877;-79
2022/10/07 03:44:18;;;;;;;4.43;2.80;;;;;;;17.96;60.84;99693.81;6948591;28;20291;-80
2022/10/07 03:47:39;;;;;;;7.13;2.87;;;;;;;18.07;60.83;99703.94;6948485;28;20232;-80
2022/10/07 03:51:01;;;;;;;6.30;3.30;;;;;;;18.13;61.15;99725.69;6948422;28;20304;-79
2022/10/07 03:54:22;;;;;;;6.80;3.87;;;;;;;18.07;61.17;99715.69;6948429;28;20301;-80
2022/10/07 03:57:52;;;;;;;6.63;3.80;;;;;;;17.87;61.53;99708.84;6947367;28;20313;-80
2022/10/07 04:01:16;;;;;;;5.80;3.50;;;;;;;17.83;62.13;99730.31;6947845;28;20220;-80
2022/10/07 04:04:38;;;;;;;5.60;3.00;;;;;;;18.18;61.19;99714.06;6947484;28;20743;-79
2022/10/07 04:07:59;;;;;;;7.13;3.27;;;;;;;18.14;61.04;99701.94;6947129;28;20283;-80
2022/10/07 04:11:21;;;;;;;9.93;3.70;;;;;;;17.84;61.41;99691.03;6948427;28;20359;-80
2022/10/07 04:14:43;;;;;;;4.60;3.23;;;;;;;17.74;62.37;99706.28;6947701;28;20207;-80
2022/10/07 04:18:08;;;;;;;5.17;3.70;;;;;;;17.84;62.30;99701.94;6946060;28;20276;-80
2022/10/07 04:21:29;;;;;;;7.10;3.50;;;;;;;17.75;62.25;99699.78;6945160;28;20302;-80
2022/10/07 04:28:26;;;;;;;8.03;3.53;;;;;;;17.95;61.25;99682.06;6945814;28;20232;-80
2022/10/07 04:31:48;;;;;;;5.43;3.30;;;;;;;18.08;61.56;99700.13;6946652;28;20209;-80
2022/10/07 04:35:11;;;;;;;5.27;3.43;;;;;;;18.18;61.38;99695.81;6946819;28;20352;-80
2022/10/07 04:38:32;;;;;;;5.70;3.23;;;;;;;18.00;61.56;99690.41;6945590;28;20235;-80
2022/10/07 04:41:54;;;;;;;5.67;3.50;;;;;;;17.81;61.64;99668.84;6946793;28;20203;-79
2022/10/07 04:45:16;;;;;;;9.83;3.67;;;;;;;18.03;62.00;99687.19;6946697;28;20210;-79
2022/10/07 04:48:38;;;;;;;7.27;3.40;;;;;;;18.18;61.35;99682.16;6946081;28;20236;-79
2022/10/07 04:52:01;;;;;;;5.83;4.10;;;;;;;17.91;61.42;99666.38;6946299;28;20342;-79
2022/10/07 04:55:22;;;;;;;6.27;3.70;;;;;;;17.91;62.07;99678.13;6945738;28;20212;-79
2022/10/07 04:58:44;;;;;;;5.40;4.27;;;;;;;18.08;61.85;99665.50;6947315;28;20771;-79
2022/10/07 05:02:05;;;;;;;5.57;3.30;;;;;;;18.40;60.65;99671.56;6948175;28;20737;-79
2022/10/07 05:05:28;;;;;;;6.57;3.43;;;;;;;18.20;60.96;99663.66;6946332;28;20239;-80
2022/10/07 05:08:53;;;;;;;7.93;3.57;;;;;;;18.21;60.81;99648.13;6949283;28;20275;-79
2022/10/07 05:12:16;;;;;;;4.50;3.40;;;;;;;18.34;60.50;99667.84;6947785;28;20670;-79
2022/10/07 05:15:38;;;;;;;10.30;4.03;;;;;;;18.32;60.73;99650.03;6947605;28;20200;-79
2022/10/07 05:19:01;;;;;;;15.30;3.50;;;;;;;17.84;61.48;99650.13;6946354;28;20225;-79
2022/10/07 05:22:22;;;;;;;10.60;5.27;;;;;;;18.09;61.56;99653.53;6948717;28;20266;-80
2022/10/07 05:25:45;;;;;;;5.80;3.60;;;;;;;18.07;61.60;99661.13;6949056;28;20205;-80
2022/10/07 05:29:07;;;;;;;5.97;4.10;;;;;;;18.23;61.34;99670.53;6947408;28;20717;-80
2022/10/07 05:32:29;;;;;;;6.33;3.83;;;;;;;18.00;62.07;99668.56;6934569;28;20195;-81
2022/10/07 05:35:50;;;;;;;7.57;4.03;;;;;;;18.14;61.68;99661.84;6939330;28;20287;-81
2022/10/07 05:39:12;;;;;;;7.30;3.13;;;;;;;17.97;61.87;99652.66;6941494;28;20278;-80
2022/10/07 05:42:35;;;;;;;8.57;3.40;;;;;;;18.15;61.49;99635.38;6941532;28;20353;-79
2022/10/07 05:45:59;;;;;;;5.87;3.40;;;;;;;18.12;61.27;99652.22;6949568;28;20199;-79
2022/10/07 05:49:20;;;;;;;6.43;3.40;;;;;;;18.37;61.18;99666.56;6948703;28;20226;-79
2022/10/07 05:52:44;;;;;;;7.80;4.73;;;;;;;18.45;60.82;99661.59;6948775;28;20213;-79
2022/10/07 05:56:06;;;;;;;5.47;3.40;;;;;;;18.45;60.62;99653.41;6948491;28;20208;-79
2022/10/07 05:59:29;;;;;;;8.10;3.43;;;;;;;18.63;60.50;99666.97;6949549;28;20719;-79
2022/10/07 06:02:51;;;;;;;7.93;2.90;;;;;;;18.82;59.58;99660.31;6949645;28;20686;-80
2022/10/07 06:06:13;;;;;;;6.27;3.00;;;;;;;18.51;59.56;99648.91;6950585;28;20296;-79
2022/10/07 06:13:14;;;;;;;6.63;3.50;;;;;;;18.81;59.06;99655.09;6956827;28;20199;-79
2022/10/07 06:16:37;;;;;;;4.00;2.57;;;;;;;18.89;59.26;99652.84;6956713;28;20229;-78
2022/10/07 06:19:58;;;;;;;5.63;3.13;;;;;;;18.78;59.01;99629.09;6948405;28;20345;-79
2022/10/07 06:23:20;;;;;;;6.20;3.20;;;;;;;18.86;58.97;99631.44;6928394;28;20249;-80
2022/10/07 06:26:42;;;;;;;4.17;2.87;;;;;;;18.92;59.25;99657.84;6950048;28;20374;-80
2022/10/07 06:30:04;;;;;;;3.20;3.00;;;;;;;19.14;58.18;99647.97;6956802;28;20316;-79
2022/10/07 06:33:26;;;;;;;3.63;2.73;;;;;;;19.20;58.28;99648.88;6961321;28;20206;-79
2022/10/07 06:36:48;;;;;;;5.90;4.00;;;;;;;19.37;57.73;99645.22;6965310;28;20226;-79
2022/10/07 06:40:10;;;;;;;5.77;3.33;;;;;;;19.26;57.82;99631.56;6951689;28;20310;-78
2022/10/07 06:43:33;;;;;;;7.37;3.60;;;;;;;19.28;58.18;99652.13;6951355;28;20199;-78
2022/10/07 06:46:55;;;;;;;6.83;3.90;;;;;;;19.09;59.35;99650.56;6951974;28;20249;-78
2022/10/07 06:50:18;;;;;;;3.87;2.90;;;;;;;19.37;58.49;99645.22;6950915;28;20697;-78
2022/10/07 06:53:39;;;;;;;4.10;2.90;;;;;;;19.26;58.13;99643.34;6945740;28;20286;-78
2022/10/07 06:57:01;;;;;;;9.63;3.20;;;;;;;19.49;57.46;99656.97;6951487;28;20251;-78
2022/10/07 07:00:22;;;;;;;7.70;3.20;;;;;;;19.00;58.42;99662.13;6950756;28;20219;-78
2022/10/07 07:03:44;;;;;;;5.80;3.10;;;;;;;19.11;58.42;99631.22;6955090;28;20294;-78
2022/10/07 07:07:07;;;;;;;6.77;3.60;;;;;;;19.59;58.10;99645.41;6952035;28;20282;-79
2022/10/07 07:10:28;;;;;;;6.20;3.03;;;;;;;19.70;57.62;99653.56;6950626;28;20606;-78
2022/10/07 07:13:50;;;;;;;6.27;3.17;;;;;;;19.80;57.57;99658.44;6950920;28;20218;-79
2022/10/07 07:17:11;;;;;;;6.13;3.70;;;;;;;20.11;57.43;99647.81;6950951;28;20630;-80
2022/10/07 07:20:36;;;;;;;6.73;3.40;;;;;;;20.31;56.04;99647.38;6950108;28;21120;-80
2022/10/07 07:23:59;;;;;;;7.47;3.50;;;;;;;20.20;55.84;99648.25;6951341;28;20203;-79
2022/10/07 07:27:21;;;;;;;4.80;3.27;;;;;;;20.25;55.75;99651.09;6950486;28;20333;-79
2022/10/07 07:30:42;;;;;;;5.97;3.40;;;;;;;20.33;55.63;99647.97;6949420;28;20219;-80
2022/10/07 07:34:06;;;;;;;5.63;3.30;;;;;;;20.73;55.06;99641.25;6950745;28;20724;-79
2022/10/07 07:37:28;;;;;;;7.87;3.33;;;;;;;21.42;52.81;99643.38;6949319;28;20226;-80
2022/10/07 07:40:52;;;;;;;7.87;3.97;;;;;;;21.92;51.59;99630.28;6949145;28;20216;-80
2022/10/07 07:44:15;;;;;;;6.90;3.37;;;;;;;22.12;51.17;99630.53;6950833;28;20337;-79
2022/10/07 07:47:37;;;;;;;7.17;3.43;;;;;;;22.34;50.54;99632.09;6949627;28;20300;-80
2022/10/07 07:50:59;;;;;;;10.23;3.47;;;;;;;22.56;49.66;99612.81;6953797;28;20275;-80
2022/10/07 07:54:21;;;;;;;6.70;3.13;;;;;;;22.62;49.51;99626.34;6950762;28;20210;-80
2022/10/07 07:57:44;;;;;;;5.67;2.83;;;;;;;22.62;49.35;99622.75;6949859;28;21053;-81
2022/10/07 08:01:07;;;;;;;5.50;2.90;;;;;;;21.95;49.91;99630.59;6950668;28;20224;-80
2022/10/07 08:04:29;;;;;;;5.13;3.20;;;;;;;22.91;48.25;99619.41;6950189;28;20760;-79
2022/10/07 08:07:51;;;;;;;8.77;3.93;;;;;;;23.41;47.93;99622.47;6949085;28;20216;-80
2022/10/07 08:11:14;;;;;;;10.63;3.90;;;;;;;23.51;46.88;99621.69;6947356;28;20221;-79
2022/10/07 08:14:37;;;;;;;5.37;3.23;;;;;;;23.81;45.94;99580.47;6922969;28;20254;-80
2022/10/07 08:17:59;;;;;;;6.73;3.63;;;;;;;23.07;47.01;99576.31;6944032;28;20232;-80
2022/10/07 08:21:23;;;;;;;8.07;3.60;;;;;;;23.03;47.62;99587.03;6949050;28;20548;-81
2022/10/07 08:24:44;;;;;;;7.20;3.70;;;;;;;24.26;45.62;99602.63;6950042;28;20276;-81
2022/10/07 08:28:06;;;;;;;6.70;4.27;;;;;;;23.97;46.40;99599.56;6950241;28;20235;-81
2022/10/07 08:31:29;;;;;;;8.10;6.30;;;;;;;24.22;45.76;99574.81;6951142;28;20312;-80
2022/10/07 08:34:51;;;;;;;8.37;3.40;;;;;;;24.28;45.76;99597.66;6951881;28;20277;-81
2022/10/07 08:38:14;;;;;;;9.30;3.93;;;;;;;24.78;45.12;99595.75;6955376;28;20705;-81
2022/10/07 08:41:42;;;;;;;5.03;3.20;;;;;;;24.58;43.29;99559.94;6950216;28;20214;-81
2022/10/07 08:45:07;;;;;;;5.53;3.23;;;;;;;24.74;43.97;99596.59;6948904;28;20287;-81
2022/10/07 08:48:35;;;;;;;6.60;3.23;;;;;;;25.30;42.77;99567.81;6948805;28;20229;-81
2022/10/07 08:52:01;;;;;;;3.43;2.80;;;;;;;24.08;44.50;99583.88;6947899;28;20192;-79
2022/10/07 08:55:27;;;;;;;3.80;2.57;;;;;;;25.10;42.13;99579.69;6948395;28;20309;-80
2022/10/07 08:58:55;;;;;;;3.53;2.57;;;;;;;25.34;41.54;99575.22;6949834;28;20316;-80
2022/10/07 09:02:27;;;;;;;2.93;2.50;;;;;;;25.45;40.82;99557.50;6948603;28;20713;-80
2022/10/07 09:05:51;;;;;;;4.37;2.70;;;;;;;25.15;41.46;99581.63;6945333;28;20210;-82
2022/10/07 09:09:15;;;;;;;4.50;2.50;;;;;;;25.50;40.45;99557.50;6924090;28;20229;-80
2022/10/07 09:12:42;;;;;;;3.33;2.47;;;;;;;25.78;40.75;99556.78;6923284;28;20305;-80
2022/10/07 09:16:06;;;;;;;8.57;2.73;;;;;;;25.68;40.11;99536.69;6923429;28;20283;-80
2022/10/07 09:19:32;;;;;;;7.23;2.67;;;;;;;26.05;39.75;99568.25;6922028;28;20306;-80
2022/10/07 09:22:57;;;;;;;5.03;2.70;;;;;;;26.15;39.81;99536.94;6923497;28;20206;-80
2022/10/07 09:26:18;;;;;;;6.50;3.00;;;;;;;26.08;39.61;99542.78;6944690;28;20355;-80
2022/10/07 09:29:40;;;;;;;3.67;2.80;;;;;;;26.31;39.08;99549.53;6950303;28;20252;-80
2022/10/07 09:33:03;;;;;;;10.83;3.20;;;;;;;25.85;40.36;99532.44;6951122;28;20273;-80
2022/10/07 09:36:25;;;;;;;4.37;3.00;;;;;;;26.30;39.09;99540.41;6952016;28;20231;-80
2022/10/07 09:39:49;;;;;;;5.50;2.93;;;;;;;26.07;39.83;99541.13;6952669;28;20230;-81
2022/10/07 09:43:12;;;;;;;4.33;3.20;;;;;;;25.16;40.61;99541.84;6958668;28;20200;-81
2022/10/07 09:46:41;;;;;;;4.40;3.20;;;;;;;25.81;41.24;99533.28;6963683;28;20210;-81
2022/10/07 09:50:02;;;;;;;3.67;2.80;;;;;;;26.03;40.87;99517.13;6976012;28;20233;-80
2022/10/07 09:53:26;;;;;;;5.67;3.50;;;;;;;26.69;39.98;99521.81;6961377;28;20215;-81
2022/10/07 09:56:56;;;;;;;6.63;3.10;;;;;;;26.79;39.24;99524.47;6956232;28;20218;-80
2022/10/07 10:00:23;;;;;;;5.57;3.00;;;;;;;27.18;37.77;99524.38;6953063;28;20657;-80
2022/10/07 10:03:44;;;;;;;5.37;3.20;;;;;;;27.28;37.90;99536.13;6954511;28;20210;-80
2022/10/07 10:07:16;;;;;;;7.43;3.53;;;;;;;26.98;38.06;99519.00;6954355;28;20211;-80
2022/10/07 10:10:38;;;;;;;6.87;3.73;;;;;;;26.63;38.32;99523.00;6954430;28;20369;-81
2022/10/07 10:14:28;;;;;;;6.43;3.23;;;;;;;26.59;38.94;99519.16;6956737;28;20290;-81
2022/10/07 10:17:55;;;;;;;5.80;3.73;;;;;;;26.88;38.28;99517.19;6958674;28;20217;-82
2022/10/07 10:21:26;;;;;;;5.20;4.30;;;;;;;26.19;39.22;99508.41;6950524;28;20214;-79
2022/10/07 10:28:38;;;;;;;5.17;4.03;;;;;;;26.98;38.98;99499.63;6953576;28;20726;-82
2022/10/07 10:32:23;;;;;;;5.10;4.23;;;;;;;27.30;37.92;99491.53;6952392;28;20281;-81
2022/10/07 10:35:51;;;;;;;7.67;4.40;;;;;;;26.64;39.58;99493.38;6953149;28;20545;-81
2022/10/07 10:39:20;;;;;;;7.93;5.10;;;;;;;26.43;39.13;99487.19;6950996;28;20227;-79
2022/10/07 10:42:47;;;;;;;7.87;5.23;;;;;;;25.92;40.91;99479.63;6950810;28;20255;-79
2022/10/07 10:46:30;;;;;;;6.93;4.93;;;;;;;26.83;38.85;99484.03;6950780;28;20230;-78
2022/10/07 10:50:06;;;;;;;7.33;5.47;;;;;;;26.70;39.43;99462.59;6950740;28;20368;-79
2022/10/07 10:53:36;;;;;;;6.03;5.03;;;;;;;27.14;38.40;99467.88;6947636;28;20341;-78
2022/10/07 10:57:04;;;;;;;7.30;5.53;;;;;;;26.83;38.89;99470.19;6946362;28;20282;-77
2022/10/07 11:00:30;;;;;;;8.07;5.50;;;;;;;26.84;38.78;99471.81;6928877;28;20239;-80
2022/10/07 11:04:21;;;;;;;6.73;5.40;;;;;;;26.82;39.11;99454.72;6925549;28;20688;-81
2022/10/07 11:07:47;;;;;;;8.47;5.87;;;;;;;26.34;40.41;99458.53;6921973;28;20314;-79
2022/10/07 11:11:11;;;;;;;9.33;6.10;;;;;;;26.91;39.26;99449.34;6923875;28;20280;-79
2022/10/07 11:14:44;;;;;;;7.97;6.03;;;;;;;26.86;38.96;99436.41;6923271;28;20211;-79
2022/10/07 11:18:08;;;;;;;7.07;5.40;;;;;;;27.03;39.35;99438.66;6922311;28;20707;-80
2022/10/07 11:21:33;;;;;;;8.47;6.30;;;;;;;26.60;39.76;99439.75;6928328;28;20264;-80
2022/10/07 11:25:09;;;;;;;6.80;6.10;;;;;;;26.31;40.85;99425.91;6933199;28;20799;-80
2022/10/07 11:28:33;;;;;;;8.10;6.80;;;;;;;26.30;40.51;99427.03;6925450;28;20258;-80
2022/10/07 11:32:00;;;;;;;6.80;6.03;;;;;;;26.71;39.11;99392.28;6924634;28;20287;-80
2022/10/07 11:35:26;;;;;;;11.20;6.13;;;;;;;26.30;40.71;99407.66;6926392;28;20224;-80
2022/10/07 11:38:49;;;;;;;9.07;6.60;;;;;;;26.42;40.67;99416.38;6928750;28;20231;-80
2022/10/07 11:42:15;;;;;;;7.20;6.37;;;;;;;27.19;39.60;99393.88;6924358;28;20298;-81
2022/10/07 11:45:42;;;;;;;7.80;6.40;;;;;;;26.49;40.16;99386.44;6944484;28;20198;-80
2022/10/07 11:49:06;;;;;;;6.77;5.90;;;;;;;26.04;41.40;99397.16;6950455;28;20226;-81
2022/10/07 11:52:30;;;;;;;6.77;5.80;;;;;;;25.95;42.21;99380.38;6951109;28;20225;-82
2022/10/07 11:55:57;;;;;;;6.87;5.17;;;;;;;26.80;40.01;99376.69;6951207;28;20202;-80
2022/10/07 11:59:33;;;;;;;7.07;6.10;;;;;;;26.65;40.74;99376.06;6950153;28;20280;-80
2022/10/07 12:02:55;;;;;;;6.90;5.80;;;;;;;26.81;40.00;99367.28;6948402;28;20364;-81
2022/10/07 12:06:16;;;;;;;8.63;6.00;;;;;;;26.97;39.79;99373.41;6949127;28;20618;-81
2022/10/07 12:10:08;;;;;;;8.17;5.80;;;;;;;26.88;39.50;99320.69;6948994;28;20322;-81
2022/10/07 12:13:38;;;;;;;6.10;5.50;;;;;;;26.97;39.56;99356.81;6949744;28;20618;-80
2022/10/07 12:17:16;;;;;;;6.37;5.37;;;;;;;27.21;38.89;99329.91;6949543;28;20280;-81
2022/10/07 12:20:46;;;;;;;8.23;6.37;;;;;;;26.43;41.61;99351.66;6946935;28;20340;-80
2022/10/07 12:24:14;;;;;;;10.23;6.17;;;;;;;26.77;39.91;99349.59;6951419;28;20329;-81
2022/10/07 12:27:36;;;;;;;6.77;5.30;;;;;;;26.84;40.02;99322.38;6950588;28;20204;-82
2022/10/07 12:30:59;;;;;;;5.60;5.10;;;;;;;27.35;39.48;99337.16;6950219;28;20254;-80
2022/10/07 12:34:52;;;;;;;10.13;5.20;;;;;;;27.12;39.93;99326.97;6945293;28;20199;-81
2022/10/07 12:38:16;;;;;;;7.37;5.97;;;;;;;26.07;42.30;99324.72;6922583;28;20241;-80
2022/10/07 12:41:44;;;;;;;8.07;5.73;;;;;;;26.58;40.89;99325.78;6951467;28;20700;-81
2022/10/07 12:45:07;;;;;;;9.63;5.87;;;;;;;25.72;42.38;99306.50;6951208;28;20263;-80
2022/10/07 12:48:33;;;;;;;7.67;6.13;;;;;;;26.20;41.56;99324.81;6951125;28;20222;-80
2022/10/07 12:51:58;;;;;;;7.93;5.87;;;;;;;26.20;41.15;99285.31;6952951;28;20261;-80
2022/10/07 12:55:21;;;;;;;6.80;5.20;;;;;;;26.33;41.32;99321.38;6956889;28;20292;-80
2022/10/07 13:03:13;;;;;;;5.30;4.80;;;;;;;26.34;41.57;99306.44;6944316;28;20587;-81
2022/10/07 13:06:48;;;;;;;9.90;5.20;;;;;;;26.87;40.06;99296.91;6949484;28;20210;-80
2022/10/07 13:10:23;;;;;;;5.73;4.77;;;;;;;27.13;39.77;99300.91;6948303;28;20228;-80
2022/10/07 13:13:49;;;;;;;6.57;4.70;;;;;;;26.80;39.78;99292.84;6947464;28;20266;-80
2022/10/07 13:17:27;;;;;;;5.97;5.00;;;;;;;26.54;41.41;99297.09;6953890;28;20201;-80
2022/10/07 13:21:02;;;;;;;8.20;4.67;;;;;;;26.47;40.63;99291.88;6953694;28;20316;-80
2022/10/07 13:24:25;;;;;;;6.87;5.23;;;;;;;26.00;41.79;99274.47;6954113;28;20273;-80
2022/10/07 13:27:52;;;;;;;5.53;4.73;;;;;;;26.12;41.73;99255.56;6957181;28;20292;-80
2022/10/07 13:31:17;;;;;;;4.70;4.20;;;;;;;26.64;41.20;99269.28;6943715;28;20283;-80
2022/10/07 13:34:39;;;;;;;5.63;4.73;;;;;;;25.48;43.23;99255.94;6955040;28;20258;-79
2022/10/07 13:38:00;;;;;;;6.13;4.43;;;;;;;26.44;41.19;99262.06;6953347;28;20693;-80
2022/10/07 13:41:25;;;;;;;5.37;4.87;;;;;;;26.18;41.58;99257.94;6953888;28;20234;-79
2022/10/07 13:44:47;;;;;;;5.70;4.47;;;;;;;26.36;41.58;99257.16;6943163;28;20206;-80
2022/10/07 13:48:14;;;;;;;5.63;5.00;;;;;;;25.74;42.05;99249.06;6953922;28;20238;-80
2022/10/07 13:51:40;;;;;;;5.20;4.77;;;;;;;25.61;42.86;99243.38;6953612;28;20196;-80
2022/10/07 13:55:01;;;;;;;6.87;4.63;;;;;;;26.07;41.48;99231.56;6949466;28;20280;-79
2022/10/07 13:58:23;;;;;;;5.77;4.50;;;;;;;25.85;41.85;99239.53;6952696;28;20377;-80
2022/10/07 14:01:49;;;;;;;7.80;4.80;;;;;;;26.05;41.97;99242.09;6952892;28;20236;-80
2022/10/07 14:05:19;;;;;;;5.60;4.60;;;;;;;25.92;41.58;99220.69;6952822;28;20276;-80
2022/10/07 14:08:50;;;;;;;7.40;4.87;;;;;;;25.92;42.31;99239.19;6952880;28;20276;-79
2022/10/07 14:12:14;;;;;;;4.50;4.10;;;;;;;25.40;43.18;99219.84;6952107;28;20334;-80
2022/10/07 14:15:38;;;;;;;5.53;5.03;;;;;;;25.09;43.71;99219.28;6952914;28;20190;-80
2022/10/07 14:19:01;;;;;;;5.13;4.63;;;;;;;24.97;44.24;99217.97;6952053;28;20287;-80
2022/10/07 14:22:28;;;;;;;5.37;4.60;;;;;;;25.02;44.47;99226.22;6953562;28;20221;-80
2022/10/07 14:25:53;;;;;;;6.73;4.63;;;;;;;25.01;44.70;99219.06;6952307;28;20204;-80
2022/10/07 14:29:36;;;;;;;5.73;5.20;;;;;;;25.34;42.86;99199.75;6951886;28;20692;-80
2022/10/07 14:37:07;;;;;;;5.70;4.23;;;;;;;25.41;43.27;99207.66;6952541;28;20206;-80
2022/10/07 14:40:29;;;;;;;8.43;4.70;;;;;;;25.27;43.39;99204.78;6949901;28;20254;-80
2022/10/07 14:43:51;;;;;;;7.00;4.43;;;;;;;25.04;44.71;99199.16;6952514;28;20766;-80
2022/10/07 14:47:14;;;;;;;6.87;4.80;;;;;;;24.77;44.56;99185.06;6952569;28;20208;-80
2022/10/07 14:50:37;;;;;;;4.90;4.47;;;;;;;24.81;44.93;99189.69;6951924;28;20359;-80
2022/10/07 14:54:03;;;;;;;5.37;4.07;;;;;;;25.03;44.58;99165.25;6952111;28;20573;-81
2022/10/07 14:57:25;;;;;;;5.17;4.20;;;;;;;25.19;43.85;99163.97;6952544;28;20193;-80
2022/10/07 15:00:47;;;;;;;5.40;4.67;;;;;;;25.07;44.10;99166.28;6952052;28;20267;-80
2022/10/07 15:04:10;;;;;;;5.37;4.53;;;;;;;24.77;44.63;99176.78;6952802;28;20254;-80
2022/10/07 15:07:32;;;;;;;6.07;4.50;;;;;;;24.69;44.91;99169.94;6952473;28;20210;-80
2022/10/07 15:10:55;;;;;;;5.23;4.47;;;;;;;24.72;45.13;99169.34;6952317;28;20270;-80
2022/10/07 15:14:16;;;;;;;5.30;4.30;;;;;;;24.70;44.67;99165.22;6951473;28;20684;-80
2022/10/07 15:17:38;;;;;;;6.13;3.93;;;;;;;24.91;44.45;99166.72;6953226;28;20284;-80
2022/10/07 15:21:00;;;;;;;7.00;4.77;;;;;;;24.80;44.44;99168.75;6951902;28;20223;-80
2022/10/07 15:24:21;;;;;;;8.20;4.83;;;;;;;25.03;43.88;99168.00;6953856;28;20292;-81
2022/10/07 15:27:44;;;;;;;4.50;4.07;;;;;;;24.95;44.69;99156.75;6955500;28;20281;-80
2022/10/07 15:31:07;;;;;;;7.40;4.53;;;;;;;24.89;44.40;99152.41;6951990;28;20242;-80
2022/10/07 15:34:29;;;;;;;4.97;4.23;;;;;;;24.13;44.96;99063.91;6956457;28;20209;-80
2022/10/07 15:37:51;;;;;;;6.63;4.83;;;;;;;24.71;44.58;99137.38;6953334;28;20204;-80
2022/10/07 15:41:29;;;;;;;5.57;4.10;;;;;;;24.48;44.61;99124.28;6956817;28;20236;-81
2022/10/07 15:44:52;;;;;;;5.20;4.70;;;;;;;24.54;45.15;99122.31;6952417;28;20209;-80
2022/10/07 15:48:13;;;;;;;7.03;4.47;;;;;;;24.41;45.71;99140.31;6952878;28;20635;-80
2022/10/07 15:51:35;;;;;;;9.37;4.60;;;;;;;24.26;46.10;99123.88;6951332;28;20365;-80
2022/10/07 15:54:56;;;;;;;4.60;4.30;;;;;;;24.36;45.66;99136.78;6950697;28;20206;-81
2022/10/07 15:58:19;;;;;;;5.80;4.00;;;;;;;23.94;46.61;99118.00;6923878;28;20263;-80
2022/10/07 16:01:42;;;;;;;4.80;4.40;;;;;;;23.98;46.74;99141.16;6924239;28;20259;-80
2022/10/07 16:05:04;;;;;;;6.03;5.10;;;;;;;23.86;46.85;99128.78;6923511;28;20575;-81
2022/10/07 16:08:26;;;;;;;4.50;4.07;;;;;;;23.82;47.19;99123.00;6955042;28;20276;-84
2022/10/07 16:11:47;;;;;;;6.00;4.43;;;;;;;23.94;47.59;99126.28;6964269;28;20200;-80
2022/10/07 16:15:10;;;;;;;14.90;8.67;;;;;;;23.54;48.44;99087.88;6953764;28;20290;-81
2022/10/07 16:18:35;;;;;;;5.23;4.73;;;;;;;23.78;48.06;99140.38;6947022;28;20229;-81
2022/10/07 16:21:57;;;;;;;4.93;4.53;;;;;;;23.93;47.67;99132.06;6948259;28;20258;-79
2022/10/07 16:25:18;;;;;;;7.33;5.53;;;;;;;23.93;47.60;99127.38;6949247;28;20277;-81